Aérodrome :
LOGIN :

S'inscrire | Disclaimer

   EN    FR    IT 

 










Légende :    VFR   VFR Marginal   IFR   IFR Intensif   IFR Très Intensif
Visi : 
Plafond : 
>= 8 km
>= 3000ft
5 à 8 km
1000 à 3000 ft
1500m à 5 km
500 à 1000 ft
800 à 1500m
200 à 500 ft
< 800m
< 200 ft
Symboles :   Orages  Brouillard  Fortes neiges  Fortes précipitations  Vent > 20 kt
SIGMETs :   Divers  Orages  Givrage  Turbulence  Onde Orograph.  Cendres Volcan.






- Altitude de l'aérodrome : 325 ft


LPCS - Cascais

DERNIER METAR :
  • 021030Z 34013KT 9999 FEW019 15/08 Q1015

METARs EXPIRÉS :
  • 021000Z 36012KT 9999 FEW018 15/09 Q1015
  • 020930Z 35010KT 9999 FEW017 14/08 Q1015
  • 020900Z 35011KT 9999 FEW017 13/09 Q1014
  • 020830Z 36011KT 9999 FEW017 13/09 Q1014
  • 020800Z 36007KT 9999 FEW017 11/08 Q1014

TAF TAF LPCS
Valide du 02 à 09h jusqu'au 02 à 18h UTC


020800Z 0209/0218 01007KT 9999 FEW018
BECMG 0210/0211 34012KT SCT040



MET'MAP, la Météo Aéronautique d'un coup d'oeil ! - Copyright ORBIFLY Décembre 2007 - Disclaimer

ORBIFLY MET'MAP TEAM :

Programmation & Développement : Alexandra Zaïnal
Sur une idée originale de : Baudouin d'Aumeries
Assistance à la programmation : Marc-Olivier Méhu
Soutien technique & logistique : Manuel Goepfert

Contact : metmap@orbifly.com




SOURCES & CREDITS :

   NOAA